sensor_id;sensor_type;location;lat;lon;timestamp;pressure;altitude;pressure_sealevel;temperature
73662;BMP280;61956;52.540;13.382;2023-09-19T00:02:09;87829.28;;;19.19
73662;BMP280;61956;52.540;13.382;2023-09-19T00:04:38;87855.41;;;19.17
73662;BMP280;61956;52.540;13.382;2023-09-19T00:07:08;87799.00;;;19.14
73662;BMP280;61956;52.540;13.382;2023-09-19T00:09:38;87807.47;;;19.13
73662;BMP280;61956;52.540;13.382;2023-09-19T00:12:10;87766.19;;;19.11
73662;BMP280;61956;52.540;13.382;2023-09-19T00:14:42;87114.19;;;19.03
73662;BMP280;61956;52.540;13.382;2023-09-19T00:17:11;87321.53;;;19.02
73662;BMP280;61956;52.540;13.382;2023-09-19T00:19:41;87606.91;;;19.04
73662;BMP280;61956;52.540;13.382;2023-09-19T00:22:12;87894.22;;;19.05
73662;BMP280;61956;52.540;13.382;2023-09-19T00:24:41;87605.56;;;19.03
73662;BMP280;61956;52.540;13.382;2023-09-19T00:27:11;87841.84;;;19.03
73662;BMP280;61956;52.540;13.382;2023-09-19T00:29:43;88015.94;;;19.04
73662;BMP280;61956;52.540;13.382;2023-09-19T00:32:12;87602.84;;;19.01
73662;BMP280;61956;52.540;13.382;2023-09-19T00:34:41;88097.03;;;19.02
73662;BMP280;61956;52.540;13.382;2023-09-19T00:37:11;87604.09;;;18.98
73662;BMP280;61956;52.540;13.382;2023-09-19T00:39:40;87685.22;;;18.98
73662;BMP280;61956;52.540;13.382;2023-09-19T00:42:18;87366.41;;;18.92
73662;BMP280;61956;52.540;13.382;2023-09-19T00:44:51;87490.69;;;18.91
73662;BMP280;61956;52.540;13.382;2023-09-19T00:47:20;87732.78;;;18.92
73662;BMP280;61956;52.540;13.382;2023-09-19T00:49:51;87546.25;;;18.89
73662;BMP280;61956;52.540;13.382;2023-09-19T00:52:20;87760.84;;;18.89
73662;BMP280;61956;52.540;13.382;2023-09-19T00:54:49;87550.75;;;18.87
73662;BMP280;61956;52.540;13.382;2023-09-19T00:57:19;87501.59;;;18.85
73662;BMP280;61956;52.540;13.382;2023-09-19T00:59:53;87841.22;;;18.87
73662;BMP280;61956;52.540;13.382;2023-09-19T01:02:24;87781.69;;;18.87
73662;BMP280;61956;52.540;13.382;2023-09-19T01:04:54;87276.50;;;18.81
73662;BMP280;61956;52.540;13.382;2023-09-19T01:07:24;87314.41;;;18.80
73662;BMP280;61956;52.540;13.382;2023-09-19T01:09:56;87423.63;;;18.80
73662;BMP280;61956;52.540;13.382;2023-09-19T01:12:32;87483.72;;;18.78
73662;BMP280;61956;52.540;13.382;2023-09-19T01:15:18;87380.31;;;18.75
73662;BMP280;61956;52.540;13.382;2023-09-19T01:18:05;87494.06;;;18.74
73662;BMP280;61956;52.540;13.382;2023-09-19T01:20:53;87873.59;;;18.78
73662;BMP280;61956;52.540;13.382;2023-09-19T01:23:55;88083.72;;;18.80
73662;BMP280;61956;52.540;13.382;2023-09-19T01:26:56;87831.06;;;18.77
73662;BMP280;61956;52.540;13.382;2023-09-19T01:29:46;88094.78;;;18.79
73662;BMP280;61956;52.540;13.382;2023-09-19T01:32:21;88340.28;;;18.82
73662;BMP280;61956;52.540;13.382;2023-09-19T01:34:55;88678.81;;;18.87
73662;BMP280;61956;52.540;13.382;2023-09-19T01:37:30;88775.81;;;18.89
73662;BMP280;61956;52.540;13.382;2023-09-19T01:40:01;89389.50;;;18.96
73662;BMP280;61956;52.540;13.382;2023-09-19T01:42:45;89521.41;;;19.00
73662;BMP280;61956;52.540;13.382;2023-09-19T01:45:26;89681.44;;;19.04
73662;BMP280;61956;52.540;13.382;2023-09-19T01:48:13;89355.19;;;19.01
73662;BMP280;61956;52.540;13.382;2023-09-19T01:51:00;89499.38;;;19.03
73662;BMP280;61956;52.540;13.382;2023-09-19T01:53:36;89443.09;;;19.04
73662;BMP280;61956;52.540;13.382;2023-09-19T01:56:18;89043.53;;;19.01
73662;BMP280;61956;52.540;13.382;2023-09-19T01:58:56;88671.34;;;18.95
73662;BMP280;61956;52.540;13.382;2023-09-19T02:01:30;88778.69;;;18.95
73662;BMP280;61956;52.540;13.382;2023-09-19T02:04:04;88214.91;;;18.88
73662;BMP280;61956;52.540;13.382;2023-09-19T02:06:33;87843.69;;;18.83
73662;BMP280;61956;52.540;13.382;2023-09-19T02:09:04;87691.72;;;18.77
73662;BMP280;61956;52.540;13.382;2023-09-19T02:11:34;87429.25;;;18.72
73662;BMP280;61956;52.540;13.382;2023-09-19T02:14:04;87728.84;;;18.73
73662;BMP280;61956;52.540;13.382;2023-09-19T02:16:34;87026.22;;;18.64
73662;BMP280;61956;52.540;13.382;2023-09-19T02:19:06;87126.84;;;18.61
73662;BMP280;61956;52.540;13.382;2023-09-19T02:21:35;87218.38;;;18.61
73662;BMP280;61956;52.540;13.382;2023-09-19T02:24:06;86519.97;;;18.51
73662;BMP280;61956;52.540;13.382;2023-09-19T02:26:38;87059.94;;;18.52
73662;BMP280;61956;52.540;13.382;2023-09-19T02:29:08;87294.00;;;18.53
73662;BMP280;61956;52.540;13.382;2023-09-19T02:31:38;87188.72;;;18.52
73662;BMP280;61956;52.540;13.382;2023-09-19T02:34:10;86711.38;;;18.45
73662;BMP280;61956;52.540;13.382;2023-09-19T02:36:43;87156.56;;;18.48
73662;BMP280;61956;52.540;13.382;2023-09-19T02:39:13;86616.50;;;18.40
73662;BMP280;61956;52.540;13.382;2023-09-19T02:41:42;87287.25;;;18.46
73662;BMP280;61956;52.540;13.382;2023-09-19T02:44:12;86923.03;;;18.41
73662;BMP280;61956;52.540;13.382;2023-09-19T02:46:41;87126.97;;;18.41
73662;BMP280;61956;52.540;13.382;2023-09-19T02:49:13;86892.91;;;18.38
73662;BMP280;61956;52.540;13.382;2023-09-19T02:51:43;87585.94;;;18.44
73662;BMP280;61956;52.540;13.382;2023-09-19T02:54:13;87101.44;;;18.39
73662;BMP280;61956;52.540;13.382;2023-09-19T02:56:43;87066.72;;;18.37
73662;BMP280;61956;52.540;13.382;2023-09-19T02:59:13;87217.09;;;18.38
73662;BMP280;61956;52.540;13.382;2023-09-19T03:01:43;87607.41;;;18.40
73662;BMP280;61956;52.540;13.382;2023-09-19T03:04:17;87125.50;;;18.36
73662;BMP280;61956;52.540;13.382;2023-09-19T03:06:48;87186.94;;;18.35
73662;BMP280;61956;52.540;13.382;2023-09-19T03:09:19;87254.91;;;18.35
73662;BMP280;61956;52.540;13.382;2023-09-19T03:11:49;87338.56;;;18.35
73662;BMP280;61956;52.540;13.382;2023-09-19T03:14:21;87507.22;;;18.36
73662;BMP280;61956;52.540;13.382;2023-09-19T03:16:51;87170.53;;;18.32
73662;BMP280;61956;52.540;13.382;2023-09-19T03:19:22;87747.78;;;18.36
73662;BMP280;61956;52.540;13.382;2023-09-19T03:21:53;88481.72;;;18.43
73662;BMP280;61956;52.540;13.382;2023-09-19T03:24:23;88561.63;;;18.46
73662;BMP280;61956;52.540;13.382;2023-09-19T03:26:53;89474.75;;;18.56
73662;BMP280;61956;52.540;13.382;2023-09-19T03:29:23;89347.44;;;18.60
73662;BMP280;61956;52.540;13.382;2023-09-19T03:31:53;89282.03;;;18.60
73662;BMP280;61956;52.540;13.382;2023-09-19T03:34:25;89149.78;;;18.59
73662;BMP280;61956;52.540;13.382;2023-09-19T03:36:55;88863.28;;;18.60
73662;BMP280;61956;52.540;13.382;2023-09-19T03:39:26;88378.91;;;18.54
73662;BMP280;61956;52.540;13.382;2023-09-19T03:41:55;88611.78;;;18.54
73662;BMP280;61956;52.540;13.382;2023-09-19T03:44:24;88228.34;;;18.51
73662;BMP280;61956;52.540;13.382;2023-09-19T03:46:53;88282.50;;;18.49
73662;BMP280;61956;52.540;13.382;2023-09-19T03:49:26;88400.31;;;18.51
73662;BMP280;61956;52.540;13.382;2023-09-19T03:51:56;89047.63;;;18.57
73662;BMP280;61956;52.540;13.382;2023-09-19T03:54:25;88619.63;;;18.54
73662;BMP280;61956;52.540;13.382;2023-09-19T03:56:52;88117.69;;;18.49
73662;BMP280;61956;52.540;13.382;2023-09-19T03:59:21;88372.13;;;18.49
73662;BMP280;61956;52.540;13.382;2023-09-19T04:01:50;88390.44;;;18.49
73662;BMP280;61956;52.540;13.382;2023-09-19T04:04:25;88400.81;;;18.47
73662;BMP280;61956;52.540;13.382;2023-09-19T04:06:55;87997.84;;;18.43
73662;BMP280;61956;52.540;13.382;2023-09-19T04:09:25;88366.13;;;18.47
73662;BMP280;61956;52.540;13.382;2023-09-19T04:11:54;88229.31;;;18.44
73662;BMP280;61956;52.540;13.382;2023-09-19T04:14:23;88127.94;;;18.43
73662;BMP280;61956;52.540;13.382;2023-09-19T04:16:53;87902.25;;;18.40
73662;BMP280;61956;52.540;13.382;2023-09-19T04:19:24;87555.56;;;18.35
73662;BMP280;61956;52.540;13.382;2023-09-19T04:21:54;87214.91;;;18.30
73662;BMP280;61956;52.540;13.382;2023-09-19T04:24:23;86527.28;;;18.20
73662;BMP280;61956;52.540;13.382;2023-09-19T04:26:52;86374.97;;;18.13
73662;BMP280;61956;52.540;13.382;2023-09-19T04:29:23;86617.97;;;18.13
73662;BMP280;61956;52.540;13.382;2023-09-19T04:31:52;86441.53;;;18.10
73662;BMP280;61956;52.540;13.382;2023-09-19T04:34:24;86368.31;;;18.06
73662;BMP280;61956;52.540;13.382;2023-09-19T04:36:54;86508.72;;;18.06
73662;BMP280;61956;52.540;13.382;2023-09-19T04:39:24;86362.41;;;18.04
73662;BMP280;61956;52.540;13.382;2023-09-19T04:41:54;86433.56;;;18.02
73662;BMP280;61956;52.540;13.382;2023-09-19T04:44:24;86261.75;;;17.99
73662;BMP280;61956;52.540;13.382;2023-09-19T04:46:53;85965.28;;;17.94
73662;BMP280;61956;52.540;13.382;2023-09-19T04:49:25;86170.94;;;17.93
73662;BMP280;61956;52.540;13.382;2023-09-19T04:51:54;86656.81;;;17.97
73662;BMP280;61956;52.540;13.382;2023-09-19T04:54:23;86144.75;;;17.89
73662;BMP280;61956;52.540;13.382;2023-09-19T04:56:52;86026.56;;;17.86
73662;BMP280;61956;52.540;13.382;2023-09-19T04:59:22;86110.78;;;17.87
73662;BMP280;61956;52.540;13.382;2023-09-19T05:01:51;86118.59;;;17.85
73662;BMP280;61956;52.540;13.382;2023-09-19T05:04:21;86123.78;;;17.83
73662;BMP280;61956;52.540;13.382;2023-09-19T05:06:53;85860.69;;;17.79
73662;BMP280;61956;52.540;13.382;2023-09-19T05:09:22;85929.19;;;17.78
73662;BMP280;61956;52.540;13.382;2023-09-19T05:11:51;86015.34;;;17.78
73662;BMP280;61956;52.540;13.382;2023-09-19T05:14:22;85925.25;;;17.75
73662;BMP280;61956;52.540;13.382;2023-09-19T05:16:51;86415.53;;;17.78
73662;BMP280;61956;52.540;13.382;2023-09-19T05:19:20;86280.34;;;17.77
73662;BMP280;61956;52.540;13.382;2023-09-19T05:21:49;86459.91;;;17.78
73662;BMP280;61956;52.540;13.382;2023-09-19T05:24:21;86315.63;;;17.76
73662;BMP280;61956;52.540;13.382;2023-09-19T05:26:52;86092.31;;;17.73
73662;BMP280;61956;52.540;13.382;2023-09-19T05:29:22;86325.34;;;17.73
73662;BMP280;61956;52.540;13.382;2023-09-19T05:31:51;86292.69;;;17.72
73662;BMP280;61956;52.540;13.382;2023-09-19T05:34:21;85854.72;;;17.69
73662;BMP280;61956;52.540;13.382;2023-09-19T05:36:58;85974.13;;;17.66
73662;BMP280;61956;52.540;13.382;2023-09-19T05:39:27;86495.00;;;17.69
73662;BMP280;61956;52.540;13.382;2023-09-19T05:41:57;86380.13;;;17.69
73662;BMP280;61956;52.540;13.382;2023-09-19T05:44:26;86752.88;;;17.71
73662;BMP280;61956;52.540;13.382;2023-09-19T05:46:55;86850.19;;;17.73
73662;BMP280;61956;52.540;13.382;2023-09-19T05:49:25;86236.47;;;17.67
73662;BMP280;61956;52.540;13.382;2023-09-19T05:51:54;87076.72;;;17.73
73662;BMP280;61956;52.540;13.382;2023-09-19T05:54:27;86797.91;;;17.71
73662;BMP280;61956;52.540;13.382;2023-09-19T05:56:56;86420.50;;;17.66
73662;BMP280;61956;52.540;13.382;2023-09-19T05:59:25;86338.94;;;17.66
73662;BMP280;61956;52.540;13.382;2023-09-19T06:01:54;86859.19;;;17.68
73662;BMP280;61956;52.540;13.382;2023-09-19T06:04:25;86615.69;;;17.68
73662;BMP280;61956;52.540;13.382;2023-09-19T06:06:56;87328.06;;;17.71
73662;BMP280;61956;52.540;13.382;2023-09-19T06:09:28;87950.09;;;17.79
73662;BMP280;61956;52.540;13.382;2023-09-19T06:11:58;87958.69;;;17.82
73662;BMP280;61956;52.540;13.382;2023-09-19T06:14:29;88180.88;;;17.84
73662;BMP280;61956;52.540;13.382;2023-09-19T06:16:58;88570.56;;;17.90
73662;BMP280;61956;52.540;13.382;2023-09-19T06:19:27;88788.44;;;17.95
73662;BMP280;61956;52.540;13.382;2023-09-19T06:21:56;88767.63;;;17.97
73662;BMP280;61956;52.540;13.382;2023-09-19T06:24:28;88387.81;;;17.94
73662;BMP280;61956;52.540;13.382;2023-09-19T06:26:57;88384.53;;;17.94
73662;BMP280;61956;52.540;13.382;2023-09-19T06:29:27;88286.44;;;17.93
73662;BMP280;61956;52.540;13.382;2023-09-19T06:31:56;88614.06;;;17.97
73662;BMP280;61956;52.540;13.382;2023-09-19T06:34:25;88767.75;;;17.99
73662;BMP280;61956;52.540;13.382;2023-09-19T06:36:54;89562.59;;;18.08
73662;BMP280;61956;52.540;13.382;2023-09-19T06:39:28;90109.84;;;18.17
73662;BMP280;61956;52.540;13.382;2023-09-19T06:41:58;89943.94;;;18.20
73662;BMP280;61956;52.540;13.382;2023-09-19T06:44:27;90572.59;;;18.28
73662;BMP280;61956;52.540;13.382;2023-09-19T06:46:57;90709.00;;;18.32
73662;BMP280;61956;52.540;13.382;2023-09-19T06:49:27;90894.00;;;18.37
73662;BMP280;61956;52.540;13.382;2023-09-19T06:51:56;91030.00;;;18.43
73662;BMP280;61956;52.540;13.382;2023-09-19T06:54:28;91327.09;;;18.49
73662;BMP280;61956;52.540;13.382;2023-09-19T06:57:00;92188.22;;;18.62
73662;BMP280;61956;52.540;13.382;2023-09-19T06:59:29;92148.81;;;18.67
73662;BMP280;61956;52.540;13.382;2023-09-19T07:01:58;92908.34;;;18.80
73662;BMP280;61956;52.540;13.382;2023-09-19T07:04:28;93878.69;;;18.97
73662;BMP280;61956;52.540;13.382;2023-09-19T07:06:58;94034.38;;;19.09
73662;BMP280;61956;52.540;13.382;2023-09-19T07:09:30;93940.31;;;19.16
73662;BMP280;61956;52.540;13.382;2023-09-19T07:12:02;94648.28;;;19.31
73662;BMP280;61956;52.540;13.382;2023-09-19T07:14:32;94482.59;;;19.38
73662;BMP280;61956;52.540;13.382;2023-09-19T07:17:04;93905.53;;;19.36
73662;BMP280;61956;52.540;13.382;2023-09-19T07:19:36;93419.03;;;19.34
73662;BMP280;61956;52.540;13.382;2023-09-19T07:22:08;93509.50;;;19.38
73662;BMP280;61956;52.540;13.382;2023-09-19T07:24:40;93139.03;;;19.40
73662;BMP280;61956;52.540;13.382;2023-09-19T07:27:09;92302.16;;;19.29
73662;BMP280;61956;52.540;13.382;2023-09-19T07:29:38;92130.25;;;19.28
73662;BMP280;61956;52.540;13.382;2023-09-19T07:32:07;91830.16;;;19.23
73662;BMP280;61956;52.540;13.382;2023-09-19T07:34:37;92641.44;;;19.31
73662;BMP280;61956;52.540;13.382;2023-09-19T07:37:07;92201.06;;;19.28
73662;BMP280;61956;52.540;13.382;2023-09-19T07:39:37;91981.97;;;19.27
73662;BMP280;61956;52.540;13.382;2023-09-19T07:42:09;91698.31;;;19.23
73662;BMP280;61956;52.540;13.382;2023-09-19T07:44:43;91594.47;;;19.19
73662;BMP280;61956;52.540;13.382;2023-09-19T07:47:16;91494.16;;;19.19
73662;BMP280;61956;52.540;13.382;2023-09-19T07:49:46;92069.50;;;19.24
73662;BMP280;61956;52.540;13.382;2023-09-19T07:52:16;91463.22;;;19.17
73662;BMP280;61956;52.540;13.382;2023-09-19T07:54:51;93116.09;;;19.35
73662;BMP280;61956;52.540;13.382;2023-09-19T07:57:20;93407.91;;;19.44
73662;BMP280;61956;52.540;13.382;2023-09-19T07:59:49;93519.38;;;19.49
73662;BMP280;61956;52.540;13.382;2023-09-19T08:02:19;93197.47;;;19.52
73662;BMP280;61956;52.540;13.382;2023-09-19T08:04:48;92580.78;;;19.46
73662;BMP280;61956;52.540;13.382;2023-09-19T08:07:20;92864.66;;;19.50
73662;BMP280;61956;52.540;13.382;2023-09-19T08:09:52;91526.63;;;19.37
73662;BMP280;61956;52.540;13.382;2023-09-19T08:12:21;90868.84;;;19.26
73662;BMP280;61956;52.540;13.382;2023-09-19T08:14:51;92091.75;;;19.36
73662;BMP280;61956;52.540;13.382;2023-09-19T08:17:21;90902.19;;;19.25
73662;BMP280;61956;52.540;13.382;2023-09-19T08:19:51;91159.66;;;19.24
73662;BMP280;61956;52.540;13.382;2023-09-19T08:22:20;91201.06;;;19.25
73662;BMP280;61956;52.540;13.382;2023-09-19T08:24:52;90516.78;;;19.15
73662;BMP280;61956;52.540;13.382;2023-09-19T08:27:22;90078.69;;;19.09
73662;BMP280;61956;52.540;13.382;2023-09-19T08:29:52;90327.63;;;19.09
73662;BMP280;61956;52.540;13.382;2023-09-19T08:32:24;89958.47;;;19.04
73662;BMP280;61956;52.540;13.382;2023-09-19T08:34:55;89348.22;;;18.94
73662;BMP280;61956;52.540;13.382;2023-09-19T08:37:25;90018.81;;;18.96
73662;BMP280;61956;52.540;13.382;2023-09-19T08:39:56;90489.97;;;19.00
73662;BMP280;61956;52.540;13.382;2023-09-19T08:42:26;91202.94;;;19.09
73662;BMP280;61956;52.540;13.382;2023-09-19T08:44:57;91353.03;;;19.10
73662;BMP280;61956;52.540;13.382;2023-09-19T08:47:34;90620.25;;;19.07
73662;BMP280;61956;52.540;13.382;2023-09-19T08:50:19;90982.41;;;19.05
73662;BMP280;61956;52.540;13.382;2023-09-19T08:52:55;91058.78;;;19.09
73662;BMP280;61956;52.540;13.382;2023-09-19T08:55:31;91431.38;;;19.13
73662;BMP280;61956;52.540;13.382;2023-09-19T08:58:03;91602.16;;;19.17
73662;BMP280;61956;52.540;13.382;2023-09-19T09:00:36;91274.28;;;19.15
73662;BMP280;61956;52.540;13.382;2023-09-19T09:03:09;91508.47;;;19.18
73662;BMP280;61956;52.540;13.382;2023-09-19T09:06:01;90715.44;;;19.09
73662;BMP280;61956;52.540;13.382;2023-09-19T09:08:31;93662.16;;;19.37
73662;BMP280;61956;52.540;13.382;2023-09-19T09:11:04;94252.94;;;19.57
73662;BMP280;61956;52.540;13.382;2023-09-19T09:13:35;93951.50;;;19.61
73662;BMP280;61956;52.540;13.382;2023-09-19T09:16:07;94606.09;;;19.71
73662;BMP280;61956;52.540;13.382;2023-09-19T09:18:40;95755.69;;;19.88
73662;BMP280;61956;52.540;13.382;2023-09-19T09:21:10;97070.50;;;20.19
73662;BMP280;61956;52.540;13.382;2023-09-19T09:23:41;96472.44;;;20.25
73662;BMP280;61956;52.540;13.382;2023-09-19T09:26:14;94561.44;;;20.13
73662;BMP280;61956;52.540;13.382;2023-09-19T09:28:46;94781.09;;;20.14
73662;BMP280;61956;52.540;13.382;2023-09-19T09:31:24;95120.84;;;20.18
73662;BMP280;61956;52.540;13.382;2023-09-19T09:33:54;95069.13;;;20.24
73662;BMP280;61956;52.540;13.382;2023-09-19T09:36:34;94890.06;;;20.22
73662;BMP280;61956;52.540;13.382;2023-09-19T09:39:04;94316.50;;;20.24
73662;BMP280;61956;52.540;13.382;2023-09-19T09:41:47;92595.66;;;19.98
73662;BMP280;61956;52.540;13.382;2023-09-19T09:44:17;92663.72;;;19.96
73662;BMP280;61956;52.540;13.382;2023-09-19T09:46:49;93908.88;;;20.07
73662;BMP280;61956;52.540;13.382;2023-09-19T09:49:50;95649.25;;;20.35
73662;BMP280;61956;52.540;13.382;2023-09-19T09:52:20;95091.69;;;20.35
73662;BMP280;61956;52.540;13.382;2023-09-19T09:55:02;94590.59;;;20.34
73662;BMP280;61956;52.540;13.382;2023-09-19T09:57:36;94011.47;;;20.33
73662;BMP280;61956;52.540;13.382;2023-09-19T10:00:10;92962.81;;;20.16
73662;BMP280;61956;52.540;13.382;2023-09-19T10:02:49;91540.69;;;19.96
73662;BMP280;61956;52.540;13.382;2023-09-19T10:05:20;90494.88;;;19.80
73662;BMP280;61956;52.540;13.382;2023-09-19T10:07:55;92332.22;;;19.90
73662;BMP280;61956;52.540;13.382;2023-09-19T10:10:31;93993.50;;;20.11
73662;BMP280;61956;52.540;13.382;2023-09-19T10:13:22;96727.03;;;20.48
73662;BMP280;61956;52.540;13.382;2023-09-19T10:15:55;96386.94;;;20.61
73662;BMP280;61956;52.540;13.382;2023-09-19T10:18:31;95355.88;;;20.56
73662;BMP280;61956;52.540;13.382;2023-09-19T10:21:05;94590.78;;;20.54
73662;BMP280;61956;52.540;13.382;2023-09-19T10:23:34;94076.59;;;20.44
73662;BMP280;61956;52.540;13.382;2023-09-19T10:26:08;94979.38;;;20.54
73662;BMP280;61956;52.540;13.382;2023-09-19T10:28:40;96888.00;;;20.81
73662;BMP280;61956;52.540;13.382;2023-09-19T10:31:10;94079.00;;;20.62
73662;BMP280;61956;52.540;13.382;2023-09-19T10:33:47;92850.38;;;20.45
73662;BMP280;61956;52.540;13.382;2023-09-19T10:36:22;93005.00;;;20.41
73662;BMP280;61956;52.540;13.382;2023-09-19T10:38:56;92674.41;;;20.34
73662;BMP280;61956;52.540;13.382;2023-09-19T10:41:32;93749.59;;;20.41
73662;BMP280;61956;52.540;13.382;2023-09-19T10:44:06;93545.97;;;20.42
73662;BMP280;61956;52.540;13.382;2023-09-19T10:46:38;93213.56;;;20.38
73662;BMP280;61956;52.540;13.382;2023-09-19T10:49:10;92048.78;;;20.24
73662;BMP280;61956;52.540;13.382;2023-09-19T10:51:42;91606.59;;;20.14
73662;BMP280;61956;52.540;13.382;2023-09-19T10:54:17;92019.59;;;20.14
73662;BMP280;61956;52.540;13.382;2023-09-19T10:56:54;91999.78;;;20.13
73662;BMP280;61956;52.540;13.382;2023-09-19T10:59:27;93345.00;;;20.27
73662;BMP280;61956;52.540;13.382;2023-09-19T11:02:16;94101.19;;;20.41
73662;BMP280;61956;52.540;13.382;2023-09-19T11:04:46;95005.22;;;20.55
73662;BMP280;61956;52.540;13.382;2023-09-19T11:07:15;95134.16;;;20.64
73662;BMP280;61956;52.540;13.382;2023-09-19T11:09:49;94738.63;;;20.67
73662;BMP280;61956;52.540;13.382;2023-09-19T11:18:56;95550.28;;;20.88
73662;BMP280;61956;52.540;13.382;2023-09-19T11:21:52;93736.91;;;20.71
73662;BMP280;61956;52.540;13.382;2023-09-19T11:24:29;94000.88;;;20.68
73662;BMP280;61956;52.540;13.382;2023-09-19T11:27:14;95768.78;;;20.88
73662;BMP280;61956;52.540;13.382;2023-09-19T11:29:46;95983.28;;;21.00
73662;BMP280;61956;52.540;13.382;2023-09-19T11:32:14;94399.09;;;20.86
73662;BMP280;61956;52.540;13.382;2023-09-19T11:34:49;94124.44;;;20.83
73662;BMP280;61956;52.540;13.382;2023-09-19T11:40:45;93551.84;;;20.69
73662;BMP280;61956;52.540;13.382;2023-09-19T11:43:31;93634.09;;;20.69
73662;BMP280;61956;52.540;13.382;2023-09-19T11:46:09;94345.81;;;20.76
73662;BMP280;61956;52.540;13.382;2023-09-19T11:48:43;94550.88;;;20.80
73662;BMP280;61956;52.540;13.382;2023-09-19T11:51:17;94779.94;;;20.85
73662;BMP280;61956;52.540;13.382;2023-09-19T11:53:48;94989.91;;;20.90
73662;BMP280;61956;52.540;13.382;2023-09-19T11:56:22;95492.31;;;21.01
73662;BMP280;61956;52.540;13.382;2023-09-19T11:58:54;94775.66;;;20.97
73662;BMP280;61956;52.540;13.382;2023-09-19T12:01:30;94650.50;;;20.96
73662;BMP280;61956;52.540;13.382;2023-09-19T12:04:02;93758.53;;;20.87
73662;BMP280;61956;52.540;13.382;2023-09-19T12:06:35;93363.69;;;20.79
73662;BMP280;61956;52.540;13.382;2023-09-19T12:09:12;93837.41;;;20.81
73662;BMP280;61956;52.540;13.382;2023-09-19T12:11:43;93779.09;;;20.83
73662;BMP280;61956;52.540;13.382;2023-09-19T12:14:23;94223.75;;;20.88
73662;BMP280;61956;52.540;13.382;2023-09-19T12:16:57;95545.28;;;21.03
73662;BMP280;61956;52.540;13.382;2023-09-19T12:19:29;94657.03;;;21.00
73662;BMP280;61956;52.540;13.382;2023-09-19T12:22:02;94787.03;;;21.03
73662;BMP280;61956;52.540;13.382;2023-09-19T12:24:35;95157.66;;;21.08
73662;BMP280;61956;52.540;13.382;2023-09-19T12:27:08;93950.69;;;20.98
73662;BMP280;61956;52.540;13.382;2023-09-19T12:29:44;95514.47;;;21.13
73662;BMP280;61956;52.540;13.382;2023-09-19T12:32:16;95968.69;;;21.24
73662;BMP280;61956;52.540;13.382;2023-09-19T12:34:51;95576.94;;;21.25
73662;BMP280;61956;52.540;13.382;2023-09-19T12:37:23;95360.22;;;21.24
73662;BMP280;61956;52.540;13.382;2023-09-19T12:40:04;96644.41;;;21.43
73662;BMP280;61956;52.540;13.382;2023-09-19T12:42:43;95717.22;;;21.38
73662;BMP280;61956;52.540;13.382;2023-09-19T12:45:13;96507.59;;;21.49
73662;BMP280;61956;52.540;13.382;2023-09-19T12:51:05;95836.25;;;21.49
73662;BMP280;61956;52.540;13.382;2023-09-19T12:53:42;94935.38;;;21.42
73662;BMP280;61956;52.540;13.382;2023-09-19T12:56:15;95182.28;;;21.42
73662;BMP280;61956;52.540;13.382;2023-09-19T12:58:49;95073.56;;;21.41
73662;BMP280;61956;52.540;13.382;2023-09-19T13:01:20;94473.63;;;21.36
73662;BMP280;61956;52.540;13.382;2023-09-19T13:04:11;94215.19;;;21.28
73662;BMP280;61956;52.540;13.382;2023-09-19T13:06:44;94224.28;;;21.27
73662;BMP280;61956;52.540;13.382;2023-09-19T13:09:18;93965.00;;;21.23
73662;BMP280;61956;52.540;13.382;2023-09-19T13:11:50;94009.31;;;21.24
73662;BMP280;61956;52.540;13.382;2023-09-19T13:14:21;93518.94;;;21.18
73662;BMP280;61956;52.540;13.382;2023-09-19T13:16:58;93981.75;;;21.20
73662;BMP280;61956;52.540;13.382;2023-09-19T13:19:38;93886.28;;;21.19
73662;BMP280;61956;52.540;13.382;2023-09-19T13:22:36;94712.88;;;21.28
73662;BMP280;61956;52.540;13.382;2023-09-19T13:25:17;94190.50;;;21.26
73662;BMP280;61956;52.540;13.382;2023-09-19T13:27:48;93773.09;;;21.19
73662;BMP280;61956;52.540;13.382;2023-09-19T13:30:21;93904.69;;;21.19
73662;BMP280;61956;52.540;13.382;2023-09-19T13:32:52;94023.88;;;21.20
73662;BMP280;61956;52.540;13.382;2023-09-19T13:35:33;94387.25;;;21.25
73662;BMP280;61956;52.540;13.382;2023-09-19T13:38:02;93157.00;;;21.12
73662;BMP280;61956;52.540;13.382;2023-09-19T13:40:38;92596.94;;;21.02
73662;BMP280;61956;52.540;13.382;2023-09-19T13:43:07;92494.41;;;20.97
73662;BMP280;61956;52.540;13.382;2023-09-19T13:45:37;92874.13;;;20.99
73662;BMP280;61956;52.540;13.382;2023-09-19T13:48:08;92935.09;;;20.98
73662;BMP280;61956;52.540;13.382;2023-09-19T13:50:37;93388.09;;;21.02
73662;BMP280;61956;52.540;13.382;2023-09-19T13:53:08;93584.47;;;21.05
73662;BMP280;61956;52.540;13.382;2023-09-19T13:55:40;94628.41;;;21.17
73662;BMP280;61956;52.540;13.382;2023-09-19T13:58:09;94591.63;;;21.23
73662;BMP280;61956;52.540;13.382;2023-09-19T14:00:39;94059.53;;;21.21
73662;BMP280;61956;52.540;13.382;2023-09-19T14:03:08;94302.00;;;21.23
73662;BMP280;61956;52.540;13.382;2023-09-19T14:05:38;94687.72;;;21.27
73662;BMP280;61956;52.540;13.382;2023-09-19T14:08:10;95084.38;;;21.34
73662;BMP280;61956;52.540;13.382;2023-09-19T14:10:43;94513.75;;;21.31
73662;BMP280;61956;52.540;13.382;2023-09-19T14:13:12;94584.41;;;21.33
73662;BMP280;61956;52.540;13.382;2023-09-19T14:15:41;93965.06;;;21.28
73662;BMP280;61956;52.540;13.382;2023-09-19T14:18:11;93552.22;;;21.21
73662;BMP280;61956;52.540;13.382;2023-09-19T14:20:40;94039.00;;;21.25
73662;BMP280;61956;52.540;13.382;2023-09-19T14:23:09;94654.31;;;21.34
73662;BMP280;61956;52.540;13.382;2023-09-19T14:25:39;95127.38;;;21.40
73662;BMP280;61956;52.540;13.382;2023-09-19T14:28:10;94739.88;;;21.38
73662;BMP280;61956;52.540;13.382;2023-09-19T14:30:40;94744.28;;;21.41
73662;BMP280;61956;52.540;13.382;2023-09-19T14:33:09;94658.78;;;21.42
73662;BMP280;61956;52.540;13.382;2023-09-19T14:35:38;94953.66;;;21.46
73662;BMP280;61956;52.540;13.382;2023-09-19T14:38:07;94187.53;;;21.39
73662;BMP280;61956;52.540;13.382;2023-09-19T14:40:36;92654.59;;;21.19